Time;durP1;ratioP1;P1;durP2;ratioP2;P2;SDS_P1;SDS_P2;PMS_P1;PMS_P2;Temp;Humidity;BMP_temperature;BMP_pressure;BME280_temperature;BME280_humidity;BME280_pressure;Samples;Min_cycle;Max_cycle;Signal;HPM_P1;HPM_P2
2023/07/26 00:00:22;;;;;;;24.33;22.37;;;12.80;82.10;;;;;;4984205;28;20645;-65
2023/07/26 00:02:49;;;;;;;28.63;26.33;;;12.90;81.70;;;;;;4992290;28;20611;-65
2023/07/26 00:05:17;;;;;;;27.30;25.30;;;13.10;82.20;;;;;;4986432;28;20182;-66
2023/07/26 00:07:44;;;;;;;23.17;21.47;;;13.20;81.30;;;;;;4983086;28;20191;-65
2023/07/26 00:10:11;;;;;;;17.97;16.20;;;13.40;80.90;;;;;;4981626;28;20257;-66
2023/07/26 00:12:39;;;;;;;13.70;12.37;;;13.60;80.20;;;;;;4986451;28;20216;-65
2023/07/26 00:15:06;;;;;;;14.73;11.87;;;13.60;78.80;;;;;;4984108;28;20273;-66
2023/07/26 00:17:34;;;;;;;15.50;10.93;;;13.70;79.00;;;;;;4987508;28;20580;-65
2023/07/26 00:20:01;;;;;;;16.93;11.80;;;13.80;78.60;;;;;;4984016;28;20210;-73
2023/07/26 00:22:30;;;;;;;12.93;11.70;;;13.90;78.40;;;;;;4982080;28;20241;-73
2023/07/26 00:24:59;;;;;;;13.60;11.10;;;13.80;78.30;;;;;;4987769;28;20178;-71
2023/07/26 00:27:27;;;;;;;13.37;11.60;;;13.80;77.80;;;;;;4984543;28;20265;-67
2023/07/26 00:29:54;;;;;;;14.23;11.10;;;13.90;78.30;;;;;;4985793;28;20633;-66
2023/07/26 00:32:21;;;;;;;12.63;10.87;;;14.20;78.40;;;;;;4982000;28;20602;-68
2023/07/26 00:34:49;;;;;;;17.10;9.90;;;14.30;77.20;;;;;;4982967;28;20213;-66
2023/07/26 00:37:16;;;;;;;11.83;9.87;;;14.50;77.10;;;;;;4984130;28;20654;-71
2023/07/26 00:39:45;;;;;;;14.87;9.83;;;14.50;76.90;;;;;;4981346;28;20187;-69
2023/07/26 00:42:17;;;;;;;11.30;9.23;;;14.70;76.50;;;;;;4977023;28;20316;-67
2023/07/26 00:44:45;;;;;;;13.53;9.53;;;14.80;76.10;;;;;;4985590;28;20194;-72
2023/07/26 00:47:12;;;;;;;13.97;10.33;;;14.80;75.70;;;;;;4965771;28;20187;-66
2023/07/26 00:49:40;;;;;;;11.73;9.10;;;14.80;75.10;;;;;;4987688;28;20186;-69
2023/07/26 00:52:09;;;;;;;11.27;9.53;;;15.00;75.30;;;;;;4985169;28;20246;-68
2023/07/26 00:54:36;;;;;;;14.20;9.00;;;15.10;74.70;;;;;;4981943;28;20284;-67
2023/07/26 00:57:04;;;;;;;13.13;9.67;;;15.10;74.60;;;;;;4978586;28;20549;-70
2023/07/26 00:59:31;;;;;;;12.07;8.23;;;15.30;74.30;;;;;;4981501;28;20269;-66
2023/07/26 01:01:58;;;;;;;12.47;8.47;;;15.60;73.70;;;;;;4961966;28;20288;-69
2023/07/26 01:04:25;;;;;;;11.33;7.93;;;15.60;72.80;;;;;;4986024;28;20453;-65
2023/07/26 01:07:11;;;;;;;12.30;8.60;;;15.70;72.70;;;;;;4981557;28;20203;-71
2023/07/26 01:09:52;;;;;;;13.00;8.23;;;15.80;72.60;;;;;;4983089;28;20256;-69
2023/07/26 01:12:32;;;;;;;12.13;8.70;;;16.10;71.90;;;;;;4980249;28;20185;-69
2023/07/26 01:15:04;;;;;;;14.33;7.90;;;16.10;71.30;;;;;;4985190;28;20590;-72
2023/07/26 01:17:32;;;;;;;10.60;8.50;;;16.20;71.40;;;;;;4979127;28;20522;-66
2023/07/26 01:19:59;;;;;;;13.33;7.17;;;16.20;70.80;;;;;;4986143;28;20178;-66
2023/07/26 01:22:26;;;;;;;9.20;7.63;;;16.40;70.50;;;;;;4985749;28;20289;-67
2023/07/26 01:24:54;;;;;;;14.60;7.67;;;16.60;69.70;;;;;;4984034;28;20190;-67
2023/07/26 01:27:21;;;;;;;9.83;7.00;;;16.70;69.50;;;;;;4982950;28;20248;-66
2023/07/26 01:29:53;;;;;;;14.50;7.47;;;16.80;69.20;;;;;;4987318;28;20280;-67
2023/07/26 01:32:22;;;;;;;11.17;6.93;;;16.90;68.40;;;;;;4978696;28;20275;-69
2023/07/26 01:34:50;;;;;;;12.33;6.43;;;17.20;67.70;;;;;;4986354;28;20182;-67
2023/07/26 01:37:20;;;;;;;6.57;5.30;;;17.30;67.60;;;;;;4981184;28;20221;-71
2023/07/26 01:39:49;;;;;;;5.33;4.80;;;17.40;67.10;;;;;;4987315;28;20186;-66
2023/07/26 01:42:17;;;;;;;9.13;5.20;;;17.40;66.40;;;;;;4981035;28;20226;-68
2023/07/26 01:44:44;;;;;;;9.57;5.03;;;17.60;66.30;;;;;;4988221;28;20221;-67
2023/07/26 01:47:11;;;;;;;6.40;4.10;;;17.60;66.20;;;;;;4978400;28;20199;-72
2023/07/26 01:49:39;;;;;;;6.67;3.80;;;17.80;65.30;;;;;;4990070;28;20181;-65
2023/07/26 01:52:06;;;;;;;5.67;3.53;;;18.10;64.70;;;;;;4984995;28;20186;-67
2023/07/26 01:54:34;;;;;;;7.70;4.20;;;18.30;64.50;;;;;;4980703;28;20649;-66
2023/07/26 01:57:01;;;;;;;7.03;3.77;;;18.40;62.70;;;;;;4982722;28;20672;-67
2023/07/26 01:59:28;;;;;;;6.20;3.00;;;18.60;62.50;;;;;;4977161;28;20186;-68
2023/07/26 02:01:56;;;;;;;6.27;3.50;;;18.70;59.40;;;;;;4961951;28;20284;-65
2023/07/26 02:04:24;;;;;;;7.07;3.37;;;19.00;60.40;;;;;;4986025;28;20193;-68
2023/07/26 02:06:53;;;;;;;5.27;3.23;;;19.00;60.60;;;;;;4979255;28;20245;-66
2023/07/26 02:09:20;;;;;;;7.40;3.33;;;19.10;60.20;;;;;;4984376;28;20196;-66
2023/07/26 02:11:48;;;;;;;4.73;2.87;;;19.60;58.90;;;;;;4983042;28;20187;-68
2023/07/26 02:14:16;;;;;;;5.77;3.00;;;20.00;56.60;;;;;;4986648;28;20233;-66
2023/07/26 02:16:43;;;;;;;2.93;2.17;;;19.90;56.00;;;;;;4985531;28;20217;-65
2023/07/26 02:19:11;;;;;;;4.37;1.83;;;19.80;53.00;;;;;;4983234;28;20244;-66
2023/07/26 02:21:38;;;;;;;6.07;2.10;;;19.90;53.00;;;;;;4987910;28;20284;-65
2023/07/26 02:24:05;;;;;;;3.13;1.90;;;19.90;52.70;;;;;;4984042;28;20190;-65
2023/07/26 02:26:33;;;;;;;2.60;1.80;;;19.80;52.50;;;;;;4979943;28;20202;-65
2023/07/26 02:29:00;;;;;;;5.17;2.10;;;19.60;52.80;;;;;;4984898;28;20606;-64
2023/07/26 02:31:27;;;;;;;2.60;1.80;;;19.70;54.00;;;;;;4979189;28;20232;-64
2023/07/26 02:33:55;;;;;;;3.43;1.90;;;19.80;51.90;;;;;;4979991;28;20179;-65
2023/07/26 02:36:23;;;;;;;2.47;1.77;;;20.10;52.10;;;;;;4984227;28;20199;-64
2023/07/26 02:38:50;;;;;;;2.90;1.90;;;20.20;49.90;;;;;;4989249;28;20273;-65
2023/07/26 02:41:18;;;;;;;6.50;2.13;;;20.10;50.10;;;;;;4985732;28;20592;-64
2023/07/26 02:43:45;;;;;;;3.17;1.90;;;20.20;50.30;;;;;;4980247;28;20218;-64
2023/07/26 02:46:12;;;;;;;3.43;1.90;;;20.50;49.20;;;;;;4979547;28;20190;-64
2023/07/26 02:48:40;;;;;;;2.80;1.50;;;20.70;49.00;;;;;;4985781;28;20170;-65
2023/07/26 02:51:07;;;;;;;2.33;1.73;;;20.80;45.90;;;;;;4981431;28;20193;-64
2023/07/26 02:53:34;;;;;;;5.13;1.97;;;20.90;46.80;;;;;;4982297;28;20193;-65
2023/07/26 02:56:02;;;;;;;5.70;1.87;;;20.90;46.60;;;;;;4984309;28;20663;-64
2023/07/26 02:58:30;;;;;;;3.03;1.50;;;21.00;46.20;;;;;;4983195;28;20675;-66
2023/07/26 03:00:57;;;;;;;2.77;1.83;;;21.00;46.90;;;;;;4983607;28;20260;-63
2023/07/26 03:03:24;;;;;;;2.27;1.90;;;21.20;46.90;;;;;;4981523;28;20197;-66
2023/07/26 03:05:52;;;;;;;2.80;1.83;;;21.10;46.00;;;;;;4980439;28;20189;-67
2023/07/26 03:08:19;;;;;;;6.87;1.60;;;21.40;45.30;;;;;;4984043;28;20198;-67
2023/07/26 03:10:46;;;;;;;2.60;1.83;;;21.60;43.90;;;;;;4985575;28;20193;-64
2023/07/26 03:13:14;;;;;;;2.27;1.57;;;21.80;42.20;;;;;;4983255;28;20209;-67
2023/07/26 03:15:41;;;;;;;3.20;1.60;;;21.50;43.50;;;;;;4983252;28;20185;-65
2023/07/26 03:18:08;;;;;;;2.00;1.70;;;21.80;44.10;;;;;;4987360;28;20190;-65
2023/07/26 03:20:36;;;;;;;2.70;1.30;;;21.80;42.10;;;;;;4988752;28;20174;-65
2023/07/26 03:23:03;;;;;;;3.27;1.67;;;21.80;41.30;;;;;;4988917;28;21850;-67
2023/07/26 03:25:30;;;;;;;3.20;1.70;;;21.80;42.10;;;;;;4986290;28;20190;-65
2023/07/26 03:27:58;;;;;;;3.27;1.50;;;21.80;41.70;;;;;;4986337;28;20190;-64
2023/07/26 03:30:25;;;;;;;1.87;1.37;;;22.00;41.20;;;;;;4988540;28;20228;-65
2023/07/26 03:32:53;;;;;;;1.47;1.10;;;21.90;40.20;;;;;;4986520;28;20209;-64
2023/07/26 03:35:21;;;;;;;2.50;1.33;;;22.00;40.50;;;;;;4984227;28;20289;-64
2023/07/26 03:37:48;;;;;;;2.00;1.40;;;22.20;40.60;;;;;;4980708;28;20182;-65
2023/07/26 03:40:15;;;;;;;2.33;1.20;;;22.20;40.10;;;;;;4982972;28;20237;-66
2023/07/26 03:42:43;;;;;;;3.30;1.30;;;22.30;39.70;;;;;;4987586;28;20221;-68
2023/07/26 03:45:10;;;;;;;2.47;1.10;;;22.80;38.60;;;;;;4985962;28;20178;-66
2023/07/26 03:47:37;;;;;;;2.43;1.47;;;22.70;38.70;;;;;;4980552;28;20193;-65
2023/07/26 03:50:05;;;;;;;2.93;1.50;;;23.00;39.00;;;;;;4981272;28;20239;-66
2023/07/26 03:52:33;;;;;;;4.03;1.30;;;23.50;38.50;;;;;;4985542;28;20367;-66
2023/07/26 03:55:00;;;;;;;2.07;1.17;;;23.20;38.20;;;;;;4982641;28;20668;-65
2023/07/26 03:57:27;;;;;;;2.50;1.27;;;22.80;39.00;;;;;;4986584;28;20186;-68
2023/07/26 03:59:55;;;;;;;2.90;1.20;;;23.10;38.60;;;;;;4985465;28;20575;-73
2023/07/26 04:02:22;;;;;;;1.93;1.17;;;23.20;38.70;;;;;;4984849;28;20214;-66
2023/07/26 04:04:49;;;;;;;3.47;1.17;;;23.50;37.70;;;;;;4988896;28;20178;-69
2023/07/26 04:07:16;;;;;;;1.37;1.23;;;23.60;37.40;;;;;;4983466;28;20193;-67
2023/07/26 04:09:44;;;;;;;3.03;1.37;;;23.80;37.20;;;;;;4988319;28;20186;-66
2023/07/26 04:12:11;;;;;;;2.67;1.53;;;24.00;36.40;;;;;;4985924;28;20182;-71
2023/07/26 04:14:39;;;;;;;2.40;1.30;;;24.10;35.70;;;;;;4984333;28;20181;-68
2023/07/26 04:17:06;;;;;;;2.40;1.37;;;24.00;36.60;;;;;;4984845;28;20197;-65
2023/07/26 04:19:33;;;;;;;2.63;1.50;;;24.30;35.80;;;;;;4985111;28;20253;-66
2023/07/26 04:22:01;;;;;;;2.33;1.23;;;24.30;34.40;;;;;;4982636;28;20213;-66
2023/07/26 04:24:28;;;;;;;3.60;1.10;;;23.90;35.40;;;;;;4985538;28;20181;-65
2023/07/26 04:26:55;;;;;;;2.03;1.17;;;24.60;33.70;;;;;;4986731;28;20237;-66
2023/07/26 04:29:23;;;;;;;2.97;1.43;;;24.90;32.60;;;;;;4979019;28;20276;-67
2023/07/26 04:31:50;;;;;;;3.33;0.90;;;24.50;33.70;;;;;;4984048;28;20292;-66
2023/07/26 04:34:18;;;;;;;1.13;0.80;;;24.90;31.90;;;;;;4968680;28;20274;-66
2023/07/26 04:36:45;;;;;;;2.50;0.90;;;25.30;32.10;;;;;;4988523;28;20861;-68
2023/07/26 04:39:12;;;;;;;2.03;1.20;;;24.80;32.70;;;;;;4981978;28;20197;-68
2023/07/26 04:41:40;;;;;;;1.23;1.00;;;24.50;32.50;;;;;;4967038;28;20237;-68
2023/07/26 04:44:07;;;;;;;1.80;1.10;;;24.50;31.90;;;;;;4987524;28;20174;-67
2023/07/26 04:46:34;;;;;;;1.80;1.10;;;24.60;30.60;;;;;;4984773;28;20224;-65
2023/07/26 04:49:02;;;;;;;1.83;1.10;;;24.30;31.50;;;;;;4986422;28;20306;-65
2023/07/26 04:51:30;;;;;;;1.70;1.00;;;24.70;31.00;;;;;;4985303;28;20189;-67
2023/07/26 04:53:57;;;;;;;1.77;1.10;;;24.20;31.20;;;;;;4979466;28;20194;-66
2023/07/26 04:56:26;;;;;;;4.33;1.20;;;24.70;32.00;;;;;;4983936;28;21566;-65
2023/07/26 04:58:53;;;;;;;4.50;1.30;;;25.00;30.80;;;;;;4977933;28;20179;-69
2023/07/26 05:01:22;;;;;;;2.80;1.30;;;24.80;31.60;;;;;;4986548;28;20235;-65
2023/07/26 05:03:49;;;;;;;3.23;1.20;;;25.50;31.80;;;;;;4982200;28;20333;-65
2023/07/26 05:06:16;;;;;;;1.77;1.20;;;25.30;31.30;;;;;;4982975;28;20269;-68
2023/07/26 05:08:44;;;;;;;2.60;1.30;;;26.00;30.70;;;;;;4983520;28;20190;-65
2023/07/26 05:11:11;;;;;;;3.57;1.33;;;25.90;30.50;;;;;;4981292;28;21581;-66
2023/07/26 05:13:39;;;;;;;2.07;1.17;;;26.20;29.80;;;;;;4982961;28;20203;-66
2023/07/26 05:16:06;;;;;;;6.37;1.17;;;26.00;30.00;;;;;;4982114;28;20221;-67
2023/07/26 05:18:33;;;;;;;1.97;0.90;;;25.80;30.40;;;;;;4985275;28;20645;-65
2023/07/26 05:21:01;;;;;;;3.17;1.37;;;25.90;30.30;;;;;;4979071;28;20190;-65
2023/07/26 05:23:28;;;;;;;2.87;1.20;;;25.60;31.10;;;;;;4984732;28;20657;-65
2023/07/26 05:25:55;;;;;;;4.23;1.60;;;25.30;32.20;;;;;;4984204;28;20185;-65
2023/07/26 05:28:22;;;;;;;4.57;1.33;;;25.20;33.80;;;;;;4982614;28;20188;-66
2023/07/26 05:30:50;;;;;;;4.13;1.50;;;24.30;36.10;;;;;;4985024;28;20216;-67
2023/07/26 05:33:17;;;;;;;2.97;1.50;;;25.20;35.10;;;;;;4980333;28;20201;-66
2023/07/26 05:35:45;;;;;;;5.53;1.57;;;25.30;34.40;;;;;;4977539;28;20649;-67
2023/07/26 05:38:12;;;;;;;3.43;1.70;;;24.70;36.30;;;;;;4976242;28;20193;-70
2023/07/26 05:40:39;;;;;;;4.57;1.47;;;24.70;36.70;;;;;;4982092;28;20189;-68
2023/07/26 05:43:07;;;;;;;5.03;2.07;;;24.20;38.20;;;;;;4982479;28;20224;-63
2023/07/26 05:45:34;;;;;;;5.47;1.80;;;23.70;40.90;;;;;;4984176;28;20595;-64
2023/07/26 05:48:01;;;;;;;7.63;1.90;;;23.50;42.20;;;;;;4979399;28;20178;-65
2023/07/26 05:50:29;;;;;;;6.80;1.80;;;23.50;44.00;;;;;;4983118;28;20629;-66
2023/07/26 05:52:56;;;;;;;6.53;1.90;;;24.00;43.70;;;;;;4981110;28;20190;-65
2023/07/26 05:55:23;;;;;;;6.57;1.90;;;24.20;43.30;;;;;;4980163;28;20252;-67
2023/07/26 05:57:50;;;;;;;4.63;1.80;;;23.80;44.00;;;;;;4985942;28;20233;-65
2023/07/26 06:00:19;;;;;;;6.43;2.33;;;24.00;43.70;;;;;;4981990;28;20593;-69
2023/07/26 06:02:46;;;;;;;5.47;2.20;;;24.20;43.90;;;;;;4983673;28;20226;-65
2023/07/26 06:05:13;;;;;;;9.27;1.50;;;24.00;43.70;;;;;;4984848;28;20273;-65
2023/07/26 06:07:41;;;;;;;4.87;2.00;;;23.40;44.70;;;;;;4990476;28;20191;-66
2023/07/26 06:10:09;;;;;;;8.17;2.17;;;23.50;44.30;;;;;;4980816;28;20213;-66
2023/07/26 06:12:36;;;;;;;7.80;2.40;;;23.40;44.70;;;;;;4986938;28;20766;-66
2023/07/26 06:15:03;;;;;;;11.20;2.47;;;23.10;45.80;;;;;;4980258;28;20182;-66
2023/07/26 06:17:31;;;;;;;6.57;1.90;;;22.20;48.30;;;;;;4986257;28;20186;-67
2023/07/26 06:19:58;;;;;;;4.30;1.87;;;21.50;50.30;;;;;;4982384;28;20186;-68
2023/07/26 06:22:25;;;;;;;6.80;2.10;;;20.80;51.80;;;;;;4983523;28;20269;-66
2023/07/26 06:24:53;;;;;;;10.83;2.27;;;20.70;52.60;;;;;;4984875;28;20241;-67
2023/07/26 06:27:25;;;;;;;10.57;2.60;;;20.30;53.70;;;;;;4986812;28;20190;-67
2023/07/26 06:29:52;;;;;;;5.63;2.50;;;20.00;55.10;;;;;;4978332;28;20210;-66
2023/07/26 06:32:20;;;;;;;6.17;1.93;;;19.50;55.70;;;;;;4986742;28;20278;-65
2023/07/26 06:34:47;;;;;;;7.70;2.37;;;19.50;56.00;;;;;;4983551;28;20193;-65
2023/07/26 06:37:14;;;;;;;6.43;2.63;;;19.30;57.30;;;;;;4981033;28;20645;-66
2023/07/26 06:39:42;;;;;;;9.83;2.37;;;19.10;58.70;;;;;;4963125;28;20255;-65
2023/07/26 06:42:09;;;;;;;13.03;2.90;;;19.00;59.60;;;;;;4985222;28;20703;-70
2023/07/26 06:44:38;;;;;;;11.00;2.77;;;18.90;60.00;;;;;;4986885;28;20186;-67
2023/07/26 06:47:07;;;;;;;9.20;2.90;;;18.90;60.90;;;;;;4988896;28;20679;-71
2023/07/26 06:49:35;;;;;;;11.37;2.80;;;18.80;61.20;;;;;;4988950;28;20190;-70
2023/07/26 06:52:03;;;;;;;12.77;2.90;;;18.60;61.80;;;;;;4989015;28;20187;-72
2023/07/26 06:54:31;;;;;;;12.90;3.13;;;18.50;62.50;;;;;;4968319;28;20644;-65
2023/07/26 06:56:58;;;;;;;10.83;2.53;;;18.50;62.80;;;;;;4983504;28;20749;-64
2023/07/26 06:59:27;;;;;;;10.90;3.30;;;18.40;63.50;;;;;;4989182;28;20217;-64
2023/07/26 07:01:54;;;;;;;7.23;2.90;;;18.30;63.70;;;;;;4990272;28;20684;-65
2023/07/26 07:04:22;;;;;;;11.27;3.17;;;18.10;64.10;;;;;;4981936;28;20197;-65
2023/07/26 07:06:49;;;;;;;10.53;2.70;;;18.10;64.20;;;;;;4984036;28;20187;-65
2023/07/26 07:09:17;;;;;;;5.50;2.27;;;17.90;63.40;;;;;;4991151;28;20216;-66
2023/07/26 07:11:44;;;;;;;8.63;2.50;;;17.80;63.60;;;;;;4986537;28;20178;-64
2023/07/26 07:14:11;;;;;;;7.60;2.43;;;17.70;63.30;;;;;;4988280;28;20573;-64
2023/07/26 07:16:39;;;;;;;6.50;2.37;;;17.60;63.50;;;;;;4989700;28;20257;-64
2023/07/26 07:19:06;;;;;;;8.97;2.73;;;17.50;63.30;;;;;;4990102;28;20645;-66
2023/07/26 07:21:33;;;;;;;7.17;2.50;;;17.40;63.50;;;;;;4989238;28;20288;-64
2023/07/26 07:24:01;;;;;;;10.70;3.10;;;17.30;63.70;;;;;;4990695;28;20272;-65
2023/07/26 07:26:28;;;;;;;6.90;2.53;;;17.30;63.90;;;;;;4987236;28;20181;-67
2023/07/26 07:28:55;;;;;;;7.73;2.70;;;17.20;64.30;;;;;;4987077;28;20180;-63
2023/07/26 07:31:24;;;;;;;9.83;2.80;;;17.20;64.80;;;;;;4982081;28;20242;-63
2023/07/26 07:33:51;;;;;;;5.70;2.70;;;17.10;65.00;;;;;;4987277;28;20579;-64
2023/07/26 07:36:19;;;;;;;9.20;2.70;;;17.00;65.40;;;;;;4987567;28;20196;-63
2023/07/26 07:38:47;;;;;;;5.17;2.87;;;16.90;65.50;;;;;;4988705;28;20290;-63
2023/07/26 07:41:14;;;;;;;9.23;2.63;;;16.80;65.70;;;;;;4983170;28;20219;-63
2023/07/26 07:43:42;;;;;;;12.07;2.70;;;16.80;66.10;;;;;;4986864;28;20268;-62
2023/07/26 07:46:09;;;;;;;9.13;2.63;;;16.70;66.40;;;;;;4983263;28;20179;-65
2023/07/26 07:48:37;;;;;;;13.37;3.00;;;16.70;66.80;;;;;;4987972;28;20629;-65
2023/07/26 07:51:05;;;;;;;8.43;2.93;;;16.60;67.10;;;;;;4989598;28;20513;-65
2023/07/26 07:53:32;;;;;;;8.77;2.60;;;16.60;67.60;;;;;;4987687;28;20195;-66
2023/07/26 07:55:59;;;;;;;11.30;3.50;;;16.50;67.50;;;;;;4987335;28;20188;-66
2023/07/26 07:58:27;;;;;;;9.93;3.57;;;16.50;67.90;;;;;;4982633;28;20181;-63
2023/07/26 08:00:59;;;;;;;10.63;4.37;;;16.40;68.00;;;;;;4981813;28;20183;-66
2023/07/26 08:03:26;;;;;;;8.53;3.83;;;16.40;68.40;;;;;;4980745;28;20442;-65
2023/07/26 08:05:54;;;;;;;8.97;4.33;;;16.30;68.60;;;;;;4988537;28;20272;-63
2023/07/26 08:08:22;;;;;;;10.10;3.90;;;16.30;68.60;;;;;;4986410;28;20193;-65
2023/07/26 08:10:50;;;;;;;10.53;3.73;;;16.30;68.70;;;;;;4983877;28;20209;-64
2023/07/26 08:13:18;;;;;;;9.67;3.27;;;16.30;69.00;;;;;;4981243;28;20201;-66
2023/07/26 08:15:45;;;;;;;10.60;3.10;;;16.20;69.20;;;;;;4984528;28;20185;-67
2023/07/26 08:18:12;;;;;;;9.57;3.17;;;16.10;69.50;;;;;;4982529;28;20210;-63
2023/07/26 08:20:40;;;;;;;10.40;3.93;;;16.10;70.00;;;;;;4977896;28;20186;-64
2023/07/26 08:23:07;;;;;;;9.57;3.60;;;16.00;70.10;;;;;;4981096;28;20303;-64
2023/07/26 08:25:35;;;;;;;8.80;3.70;;;16.00;70.20;;;;;;4982083;28;20189;-65
2023/07/26 08:28:02;;;;;;;14.77;3.27;;;15.90;70.40;;;;;;4965313;28;20180;-66
2023/07/26 08:30:29;;;;;;;11.97;3.17;;;15.90;70.10;;;;;;4983141;28;20716;-69
2023/07/26 08:32:57;;;;;;;7.33;3.20;;;15.90;70.30;;;;;;4984815;28;20193;-64
2023/07/26 08:35:24;;;;;;;9.63;3.20;;;15.80;70.40;;;;;;4984752;28;20710;-65
2023/07/26 08:37:52;;;;;;;10.13;3.30;;;15.80;70.50;;;;;;4987173;28;20602;-63
2023/07/26 08:40:21;;;;;;;11.87;3.07;;;15.70;70.50;;;;;;4979342;28;20330;-63
2023/07/26 08:42:48;;;;;;;9.27;3.67;;;15.70;70.90;;;;;;4989920;28;20682;-64
2023/07/26 08:45:17;;;;;;;8.57;3.53;;;15.70;71.30;;;;;;4986303;28;20248;-63
2023/07/26 08:47:45;;;;;;;10.47;3.70;;;15.60;71.30;;;;;;4982368;28;20197;-64
2023/07/26 08:50:12;;;;;;;10.93;4.07;;;15.60;71.30;;;;;;4983448;28;20203;-70
2023/07/26 08:52:41;;;;;;;12.37;3.97;;;15.50;71.50;;;;;;4984799;28;20185;-68
2023/07/26 08:55:11;;;;;;;9.30;3.97;;;15.60;71.90;;;;;;4982616;28;20695;-66
2023/07/26 08:57:38;;;;;;;8.03;4.03;;;15.40;71.90;;;;;;4988135;28;20715;-66
2023/07/26 09:00:07;;;;;;;15.70;3.90;;;15.40;72.60;;;;;;4987957;28;20202;-65
2023/07/26 09:02:36;;;;;;;10.87;3.87;;;15.30;72.80;;;;;;4983726;28;20221;-64
2023/07/26 09:05:03;;;;;;;11.63;3.97;;;15.20;73.30;;;;;;4987456;28;20185;-66
2023/07/26 09:07:30;;;;;;;7.67;4.00;;;15.20;73.50;;;;;;4979194;28;20551;-70
2023/07/26 09:10:00;;;;;;;10.87;4.47;;;15.10;73.70;;;;;;4981269;28;20186;-67
2023/07/26 09:12:28;;;;;;;13.83;5.40;;;15.00;73.90;;;;;;4981596;28;20648;-70
2023/07/26 09:15:04;;;;;;;8.33;4.90;;;14.90;73.90;;;;;;4983619;28;20181;-69
2023/07/26 09:17:39;;;;;;;10.87;4.90;;;14.80;74.40;;;;;;4987446;28;20192;-64
2023/07/26 09:20:22;;;;;;;10.80;5.13;;;14.80;74.50;;;;;;4982351;28;20178;-67
2023/07/26 09:22:59;;;;;;;12.80;5.30;;;14.70;74.70;;;;;;4981263;28;20720;-70
2023/07/26 09:25:44;;;;;;;12.07;5.77;;;14.70;75.10;;;;;;4983512;28;20590;-71
2023/07/26 09:28:13;;;;;;;7.40;5.10;;;14.70;75.20;;;;;;4986012;28;20828;-73
2023/07/26 09:30:48;;;;;;;12.57;5.60;;;14.60;75.70;;;;;;4985894;28;20214;-70
2023/07/26 09:33:17;;;;;;;14.47;5.83;;;14.50;75.60;;;;;;4987155;28;20684;-68
2023/07/26 09:35:49;;;;;;;13.43;4.77;;;14.50;76.10;;;;;;4986690;28;20217;-65
2023/07/26 09:38:22;;;;;;;12.17;5.23;;;14.40;76.10;;;;;;4984548;28;20282;-64
2023/07/26 09:40:49;;;;;;;9.53;4.53;;;14.30;76.20;;;;;;4985480;28;20190;-65
2023/07/26 09:43:34;;;;;;;8.47;4.27;;;14.30;76.60;;;;;;4985802;28;20327;-65
2023/07/26 09:46:06;;;;;;;7.70;4.40;;;14.30;76.60;;;;;;4983333;28;20182;-66
2023/07/26 09:48:33;;;;;;;9.00;4.27;;;14.30;76.60;;;;;;4985382;28;20189;-65
2023/07/26 09:51:06;;;;;;;8.10;4.50;;;14.30;76.50;;;;;;4985448;28;20187;-64
2023/07/26 09:53:36;;;;;;;8.80;4.03;;;14.30;76.70;;;;;;4967797;28;20507;-64
2023/07/26 09:56:04;;;;;;;7.90;4.07;;;14.30;76.70;;;;;;4985096;28;20188;-64
2023/07/26 09:58:35;;;;;;;8.63;5.53;;;14.20;76.30;;;;;;4984712;28;20200;-64
2023/07/26 10:01:03;;;;;;;10.13;5.70;;;14.20;76.80;;;;;;4961204;28;20244;-65
2023/07/26 10:03:33;;;;;;;12.20;6.37;;;14.10;76.80;;;;;;4983030;28;20285;-64
2023/07/26 10:06:01;;;;;;;11.80;6.73;;;14.10;76.90;;;;;;4978561;28;20173;-64
2023/07/26 10:08:29;;;;;;;9.00;5.83;;;14.00;77.20;;;;;;4985738;28;20561;-69
2023/07/26 10:10:59;;;;;;;10.00;5.17;;;14.00;77.20;;;;;;4981950;28;20186;-66
2023/07/26 10:13:31;;;;;;;11.03;5.27;;;14.00;77.30;;;;;;4984564;28;20199;-65
2023/07/26 10:16:01;;;;;;;10.67;5.50;;;14.00;77.60;;;;;;4979857;28;20591;-66
2023/07/26 10:18:30;;;;;;;9.67;5.73;;;13.90;77.60;;;;;;4984329;28;20233;-67
2023/07/26 10:21:03;;;;;;;8.30;5.80;;;13.90;77.70;;;;;;4984374;28;20179;-66
2023/07/26 10:23:31;;;;;;;10.03;5.60;;;13.80;77.90;;;;;;4985885;28;20236;-64
2023/07/26 10:26:04;;;;;;;9.07;6.03;;;13.80;78.10;;;;;;4993413;28;20316;-68
2023/07/26 10:28:33;;;;;;;12.27;6.20;;;13.70;78.30;;;;;;4987650;28;20660;-64
2023/07/26 10:31:02;;;;;;;14.30;6.37;;;13.80;78.50;;;;;;4989910;28;20240;-64
2023/07/26 10:33:29;;;;;;;9.67;6.03;;;13.70;78.50;;;;;;4986201;28;20550;-64
2023/07/26 10:35:57;;;;;;;13.50;7.17;;;13.60;78.50;;;;;;4986522;28;20202;-64
2023/07/26 10:38:26;;;;;;;9.00;6.53;;;13.60;79.00;;;;;;4986941;28;20509;-68
2023/07/26 10:40:53;;;;;;;12.50;6.93;;;13.50;79.10;;;;;;4990599;28;20257;-64
2023/07/26 10:43:20;;;;;;;10.83;6.83;;;13.50;79.50;;;;;;4984968;28;20775;-64
2023/07/26 10:45:54;;;;;;;10.40;7.37;;;13.50;79.40;;;;;;4982588;28;20185;-66
2023/07/26 10:48:38;;;;;;;10.07;7.17;;;13.50;79.60;;;;;;4984406;28;20668;-68
2023/07/26 10:51:49;;;;;;;13.63;8.00;;;13.50;79.80;;;;;;4982213;28;20721;-65
2023/07/26 10:54:34;;;;;;;15.77;7.97;;;13.40;80.20;;;;;;4939326;28;20206;-64
2023/07/26 10:57:36;;;;;;;11.27;7.67;;;13.40;80.00;;;;;;4969505;28;20233;-64
2023/07/26 11:00:09;;;;;;;10.43;7.03;;;13.30;80.00;;;;;;4976626;28;20264;-67
2023/07/26 11:02:44;;;;;;;9.90;6.60;;;13.20;80.30;;;;;;4985041;28;20221;-65
2023/07/26 11:05:20;;;;;;;15.97;7.10;;;13.20;80.30;;;;;;4980132;28;20194;-65
2023/07/26 11:07:51;;;;;;;12.27;7.33;;;13.10;81.00;;;;;;4984453;28;20220;-65
2023/07/26 11:10:19;;;;;;;12.67;7.30;;;13.00;80.80;;;;;;4980380;28;20720;-69
2023/07/26 11:12:50;;;;;;;11.03;7.63;;;13.00;81.10;;;;;;4983984;28;20178;-64
2023/07/26 11:15:30;;;;;;;34.60;19.13;;;13.00;81.40;;;;;;4981171;28;20652;-64
2023/07/26 11:17:58;;;;;;;55.47;31.37;;;12.90;81.30;;;;;;4985515;28;20659;-70
2023/07/26 11:20:25;;;;;;;51.80;28.87;;;12.90;81.70;;;;;;4983575;28;20190;-66
2023/07/26 11:22:53;;;;;;;42.87;23.77;;;12.90;81.90;;;;;;4988398;28;20272;-68
2023/07/26 11:25:20;;;;;;;37.00;20.27;;;12.80;82.20;;;;;;4985106;28;20533;-64
2023/07/26 11:27:49;;;;;;;26.93;16.63;;;12.80;82.30;;;;;;4988594;28;20189;-66
2023/07/26 11:33:01;;;;;;;31.03;17.30;;;12.80;82.50;;;;;;5108267;27;20669;-64
2023/07/26 11:35:42;;;;;;;31.70;17.10;;;12.80;82.50;;;;;;5088448;28;20674;-65
2023/07/26 11:38:16;;;;;;;25.33;15.10;;;12.80;82.30;;;;;;5087120;28;20181;-69
2023/07/26 11:40:44;;;;;;;19.47;13.10;;;12.80;82.40;;;;;;5086253;28;20178;-68
2023/07/26 11:43:12;;;;;;;18.57;13.50;;;12.80;82.30;;;;;;5086732;28;20191;-65
2023/07/26 11:45:43;;;;;;;25.40;14.27;;;12.80;82.40;;;;;;5088332;28;20185;-66
2023/07/26 11:48:14;;;;;;;20.23;13.33;;;12.70;82.60;;;;;;5084880;28;20222;-73
2023/07/26 11:50:42;;;;;;;22.70;12.43;;;12.70;82.60;;;;;;5087908;28;20189;-69
2023/07/26 11:53:12;;;;;;;19.13;12.77;;;12.70;82.80;;;;;;5085529;28;20194;-71
2023/07/26 11:55:41;;;;;;;23.17;13.10;;;12.60;83.00;;;;;;5085573;28;20190;-71
2023/07/26 11:58:11;;;;;;;24.27;12.93;;;12.70;83.40;;;;;;5087608;28;20187;-65
2023/07/26 12:00:46;;;;;;;27.57;13.60;;;12.60;83.20;;;;;;5087391;28;20186;-71
2023/07/26 12:03:13;;;;;;;19.80;13.07;;;12.60;83.40;;;;;;5087187;28;20193;-64
2023/07/26 12:05:49;;;;;;;20.37;12.17;;;12.60;83.50;;;;;;5085102;28;20182;-67
2023/07/26 12:08:17;;;;;;;25.73;12.80;;;12.60;83.70;;;;;;5087399;28;20229;-64
2023/07/26 12:10:47;;;;;;;18.90;12.43;;;12.60;83.40;;;;;;5085221;28;20189;-64
2023/07/26 12:13:26;;;;;;;21.33;12.50;;;12.50;83.40;;;;;;5085885;28;20663;-64
2023/07/26 12:15:54;;;;;;;18.70;10.80;;;12.50;83.60;;;;;;5082292;28;20597;-64
2023/07/26 12:18:23;;;;;;;18.47;11.43;;;12.50;83.70;;;;;;5085657;28;20232;-65
2023/07/26 12:21:02;;;;;;;20.70;12.03;;;12.50;83.90;;;;;;5086450;28;20214;-64
2023/07/26 12:23:49;;;;;;;17.70;10.33;;;12.40;83.90;;;;;;5087281;28;20204;-65
2023/07/26 12:26:17;;;;;;;14.30;10.07;;;12.40;84.00;;;;;;5088268;28;20232;-66
2023/07/26 12:28:45;;;;;;;12.20;9.73;;;12.40;84.40;;;;;;5087405;28;20182;-66
2023/07/26 12:31:23;;;;;;;19.83;10.63;;;12.50;84.50;;;;;;5087188;28;20234;-64
2023/07/26 12:34:11;;;;;;;17.20;10.67;;;12.50;84.30;;;;;;5087177;28;20610;-65
2023/07/26 12:36:41;;;;;;;14.73;10.37;;;12.60;84.60;;;;;;5087770;28;20579;-64
2023/07/26 12:39:10;;;;;;;19.03;10.60;;;12.50;84.50;;;;;;5085843;28;20187;-64
2023/07/26 12:41:39;;;;;;;14.30;9.53;;;12.50;84.50;;;;;;5088601;28;20232;-64
2023/07/26 12:44:06;;;;;;;22.03;9.70;;;12.50;84.50;;;;;;5074957;28;20180;-64
2023/07/26 12:46:38;;;;;;;15.77;10.27;;;12.50;84.70;;;;;;5073363;28;20187;-64
2023/07/26 12:49:08;;;;;;;17.83;10.40;;;12.50;84.80;;;;;;5070322;28;20187;-64
2023/07/26 12:51:35;;;;;;;17.80;9.53;;;12.40;84.60;;;;;;5073651;28;20234;-64